sensor_id;sensor_type;location;lat;lon;timestamp;P1;durP1;ratioP1;P2;durP2;ratioP2
14251;SDS011;7210;51.502;10.722;2023-05-21T00:02:21;18.57;;;16.77;;
14251;SDS011;7210;51.502;10.722;2023-05-21T00:04:48;18.23;;;16.53;;
14251;SDS011;7210;51.502;10.722;2023-05-21T00:07:16;19.60;;;17.70;;
14251;SDS011;7210;51.502;10.722;2023-05-21T00:09:44;18.83;;;17.13;;
14251;SDS011;7210;51.502;10.722;2023-05-21T00:12:14;18.63;;;16.83;;
14251;SDS011;7210;51.502;10.722;2023-05-21T00:14:41;19.00;;;17.10;;
14251;SDS011;7210;51.502;10.722;2023-05-21T00:17:08;19.07;;;17.27;;
14251;SDS011;7210;51.502;10.722;2023-05-21T00:19:36;18.70;;;17.00;;
14251;SDS011;7210;51.502;10.722;2023-05-21T00:22:04;19.50;;;17.70;;
14251;SDS011;7210;51.502;10.722;2023-05-21T00:24:31;20.50;;;18.53;;
14251;SDS011;7210;51.502;10.722;2023-05-21T00:26:58;20.70;;;18.60;;
14251;SDS011;7210;51.502;10.722;2023-05-21T00:29:25;20.60;;;18.50;;
14251;SDS011;7210;51.502;10.722;2023-05-21T00:31:54;20.93;;;18.80;;
14251;SDS011;7210;51.502;10.722;2023-05-21T00:34:21;20.30;;;18.30;;
14251;SDS011;7210;51.502;10.722;2023-05-21T00:36:50;19.13;;;17.23;;
14251;SDS011;7210;51.502;10.722;2023-05-21T00:39:19;20.30;;;18.33;;
14251;SDS011;7210;51.502;10.722;2023-05-21T00:41:50;18.67;;;16.90;;
14251;SDS011;7210;51.502;10.722;2023-05-21T00:44:17;20.03;;;18.07;;
14251;SDS011;7210;51.502;10.722;2023-05-21T00:46:44;19.77;;;17.67;;
14251;SDS011;7210;51.502;10.722;2023-05-21T00:49:12;20.27;;;18.23;;
14251;SDS011;7210;51.502;10.722;2023-05-21T00:51:40;21.00;;;18.73;;
14251;SDS011;7210;51.502;10.722;2023-05-21T00:54:10;19.40;;;17.50;;
14251;SDS011;7210;51.502;10.722;2023-05-21T00:56:38;18.47;;;16.63;;
14251;SDS011;7210;51.502;10.722;2023-05-21T00:59:05;19.50;;;17.43;;
14251;SDS011;7210;51.502;10.722;2023-05-21T01:01:33;20.33;;;18.23;;
14251;SDS011;7210;51.502;10.722;2023-05-21T01:04:01;18.57;;;16.67;;
14251;SDS011;7210;51.502;10.722;2023-05-21T01:06:29;21.70;;;18.40;;
14251;SDS011;7210;51.502;10.722;2023-05-21T01:08:58;19.90;;;17.90;;
14251;SDS011;7210;51.502;10.722;2023-05-21T01:11:32;18.97;;;17.10;;
14251;SDS011;7210;51.502;10.722;2023-05-21T01:14:05;19.80;;;17.90;;
14251;SDS011;7210;51.502;10.722;2023-05-21T01:16:35;20.63;;;18.73;;
14251;SDS011;7210;51.502;10.722;2023-05-21T01:19:09;20.10;;;18.13;;
14251;SDS011;7210;51.502;10.722;2023-05-21T01:21:41;19.97;;;18.00;;
14251;SDS011;7210;51.502;10.722;2023-05-21T01:24:13;20.97;;;18.87;;
14251;SDS011;7210;51.502;10.722;2023-05-21T01:26:41;20.83;;;18.67;;
14251;SDS011;7210;51.502;10.722;2023-05-21T01:29:14;21.13;;;18.93;;
14251;SDS011;7210;51.502;10.722;2023-05-21T01:31:44;21.17;;;18.93;;
14251;SDS011;7210;51.502;10.722;2023-05-21T01:34:25;20.17;;;18.13;;
14251;SDS011;7210;51.502;10.722;2023-05-21T01:36:59;20.83;;;18.70;;
14251;SDS011;7210;51.502;10.722;2023-05-21T01:39:40;20.80;;;18.70;;
14251;SDS011;7210;51.502;10.722;2023-05-21T01:42:15;20.00;;;18.10;;
14251;SDS011;7210;51.502;10.722;2023-05-21T01:44:47;19.83;;;17.73;;
14251;SDS011;7210;51.502;10.722;2023-05-21T01:47:20;20.33;;;18.33;;
14251;SDS011;7210;51.502;10.722;2023-05-21T01:49:51;20.03;;;18.13;;
14251;SDS011;7210;51.502;10.722;2023-05-21T01:52:20;20.53;;;18.57;;
14251;SDS011;7210;51.502;10.722;2023-05-21T01:54:49;19.87;;;17.97;;
14251;SDS011;7210;51.502;10.722;2023-05-21T01:57:18;19.97;;;17.97;;
14251;SDS011;7210;51.502;10.722;2023-05-21T01:59:46;18.03;;;16.13;;
14251;SDS011;7210;51.502;10.722;2023-05-21T02:02:13;20.13;;;17.53;;
14251;SDS011;7210;51.502;10.722;2023-05-21T02:04:40;20.47;;;18.47;;
14251;SDS011;7210;51.502;10.722;2023-05-21T02:07:08;20.13;;;18.20;;
14251;SDS011;7210;51.502;10.722;2023-05-21T02:09:35;18.70;;;16.80;;
14251;SDS011;7210;51.502;10.722;2023-05-21T02:12:04;19.07;;;17.13;;
14251;SDS011;7210;51.502;10.722;2023-05-21T02:14:34;18.60;;;16.90;;
14251;SDS011;7210;51.502;10.722;2023-05-21T02:17:02;20.53;;;18.53;;
14251;SDS011;7210;51.502;10.722;2023-05-21T02:19:30;20.63;;;18.60;;
14251;SDS011;7210;51.502;10.722;2023-05-21T02:21:57;21.00;;;18.77;;
14251;SDS011;7210;51.502;10.722;2023-05-21T02:24:24;21.33;;;19.13;;
14251;SDS011;7210;51.502;10.722;2023-05-21T02:26:51;20.83;;;18.80;;
14251;SDS011;7210;51.502;10.722;2023-05-21T02:29:20;20.53;;;18.53;;
14251;SDS011;7210;51.502;10.722;2023-05-21T02:31:47;20.93;;;18.80;;
14251;SDS011;7210;51.502;10.722;2023-05-21T02:34:15;20.70;;;18.50;;
14251;SDS011;7210;51.502;10.722;2023-05-21T02:36:44;21.37;;;19.27;;
14251;SDS011;7210;51.502;10.722;2023-05-21T02:39:20;20.53;;;18.43;;
14251;SDS011;7210;51.502;10.722;2023-05-21T02:41:47;22.00;;;18.70;;
14251;SDS011;7210;51.502;10.722;2023-05-21T02:44:14;20.63;;;18.53;;
14251;SDS011;7210;51.502;10.722;2023-05-21T02:46:44;20.20;;;18.23;;
14251;SDS011;7210;51.502;10.722;2023-05-21T02:49:12;20.23;;;18.20;;
14251;SDS011;7210;51.502;10.722;2023-05-21T02:51:42;20.37;;;17.80;;
14251;SDS011;7210;51.502;10.722;2023-05-21T02:54:14;20.63;;;18.50;;
14251;SDS011;7210;51.502;10.722;2023-05-21T02:56:41;18.37;;;16.47;;
14251;SDS011;7210;51.502;10.722;2023-05-21T02:59:08;20.80;;;18.90;;
14251;SDS011;7210;51.502;10.722;2023-05-21T03:01:36;20.20;;;18.20;;
14251;SDS011;7210;51.502;10.722;2023-05-21T03:04:06;20.10;;;18.00;;
14251;SDS011;7210;51.502;10.722;2023-05-21T03:06:33;20.20;;;18.30;;
14251;SDS011;7210;51.502;10.722;2023-05-21T03:09:01;20.10;;;18.03;;
14251;SDS011;7210;51.502;10.722;2023-05-21T03:11:29;20.77;;;18.70;;
14251;SDS011;7210;51.502;10.722;2023-05-21T03:13:57;19.43;;;17.53;;
14251;SDS011;7210;51.502;10.722;2023-05-21T03:16:24;20.10;;;18.00;;
14251;SDS011;7210;51.502;10.722;2023-05-21T03:18:52;20.77;;;18.67;;
14251;SDS011;7210;51.502;10.722;2023-05-21T03:21:21;20.10;;;18.30;;
14251;SDS011;7210;51.502;10.722;2023-05-21T03:23:50;19.80;;;17.80;;
14251;SDS011;7210;51.502;10.722;2023-05-21T03:26:22;19.47;;;17.57;;
14251;SDS011;7210;51.502;10.722;2023-05-21T03:28:51;18.50;;;16.70;;
14251;SDS011;7210;51.502;10.722;2023-05-21T03:31:18;21.53;;;19.43;;
14251;SDS011;7210;51.502;10.722;2023-05-21T03:34:07;20.80;;;18.73;;
14251;SDS011;7210;51.502;10.722;2023-05-21T03:36:36;21.13;;;19.03;;
14251;SDS011;7210;51.502;10.722;2023-05-21T03:39:03;20.20;;;18.17;;
14251;SDS011;7210;51.502;10.722;2023-05-21T03:41:32;20.43;;;18.40;;
14251;SDS011;7210;51.502;10.722;2023-05-21T03:44:09;19.87;;;17.87;;
14251;SDS011;7210;51.502;10.722;2023-05-21T03:46:48;19.37;;;17.43;;
14251;SDS011;7210;51.502;10.722;2023-05-21T03:49:21;19.13;;;17.13;;
14251;SDS011;7210;51.502;10.722;2023-05-21T03:51:57;20.13;;;18.23;;
14251;SDS011;7210;51.502;10.722;2023-05-21T03:54:25;20.60;;;18.57;;
14251;SDS011;7210;51.502;10.722;2023-05-21T03:56:56;20.63;;;18.67;;
14251;SDS011;7210;51.502;10.722;2023-05-21T03:59:24;20.53;;;18.37;;
14251;SDS011;7210;51.502;10.722;2023-05-21T04:01:51;18.97;;;17.00;;
14251;SDS011;7210;51.502;10.722;2023-05-21T04:04:19;19.83;;;17.73;;
14251;SDS011;7210;51.502;10.722;2023-05-21T04:06:50;19.77;;;17.67;;
14251;SDS011;7210;51.502;10.722;2023-05-21T04:09:21;20.77;;;18.77;;
14251;SDS011;7210;51.502;10.722;2023-05-21T04:11:50;20.60;;;18.60;;
14251;SDS011;7210;51.502;10.722;2023-05-21T04:14:17;20.13;;;18.23;;
14251;SDS011;7210;51.502;10.722;2023-05-21T04:16:45;22.57;;;20.43;;
14251;SDS011;7210;51.502;10.722;2023-05-21T04:19:14;21.67;;;19.47;;
14251;SDS011;7210;51.502;10.722;2023-05-21T04:21:41;20.80;;;18.80;;
14251;SDS011;7210;51.502;10.722;2023-05-21T04:24:14;20.50;;;18.50;;
14251;SDS011;7210;51.502;10.722;2023-05-21T04:26:49;21.10;;;18.90;;
14251;SDS011;7210;51.502;10.722;2023-05-21T04:29:17;20.73;;;18.47;;
14251;SDS011;7210;51.502;10.722;2023-05-21T04:31:46;21.07;;;18.90;;
14251;SDS011;7210;51.502;10.722;2023-05-21T04:34:14;19.80;;;17.90;;
14251;SDS011;7210;51.502;10.722;2023-05-21T04:36:43;20.07;;;18.27;;
14251;SDS011;7210;51.502;10.722;2023-05-21T04:39:14;20.43;;;18.43;;
14251;SDS011;7210;51.502;10.722;2023-05-21T04:41:41;20.47;;;18.43;;
14251;SDS011;7210;51.502;10.722;2023-05-21T04:44:10;21.00;;;18.90;;
14251;SDS011;7210;51.502;10.722;2023-05-21T04:46:39;20.27;;;18.37;;
14251;SDS011;7210;51.502;10.722;2023-05-21T04:49:06;18.80;;;17.20;;
14251;SDS011;7210;51.502;10.722;2023-05-21T04:51:37;20.43;;;18.43;;
14251;SDS011;7210;51.502;10.722;2023-05-21T04:54:04;19.30;;;17.33;;
14251;SDS011;7210;51.502;10.722;2023-05-21T04:56:32;20.43;;;18.43;;
14251;SDS011;7210;51.502;10.722;2023-05-21T04:59:00;21.20;;;18.37;;
14251;SDS011;7210;51.502;10.722;2023-05-21T05:01:29;20.93;;;19.03;;
14251;SDS011;7210;51.502;10.722;2023-05-21T05:03:56;21.43;;;19.17;;
14251;SDS011;7210;51.502;10.722;2023-05-21T05:06:24;21.50;;;19.50;;
14251;SDS011;7210;51.502;10.722;2023-05-21T05:08:51;24.20;;;20.53;;
14251;SDS011;7210;51.502;10.722;2023-05-21T05:11:19;21.93;;;19.83;;
14251;SDS011;7210;51.502;10.722;2023-05-21T05:13:47;22.90;;;20.47;;
14251;SDS011;7210;51.502;10.722;2023-05-21T05:16:14;22.83;;;20.53;;
14251;SDS011;7210;51.502;10.722;2023-05-21T05:18:44;21.87;;;19.77;;
14251;SDS011;7210;51.502;10.722;2023-05-21T05:21:11;21.80;;;19.73;;
14251;SDS011;7210;51.502;10.722;2023-05-21T05:23:44;22.60;;;20.30;;
14251;SDS011;7210;51.502;10.722;2023-05-21T05:26:11;23.10;;;20.80;;
14251;SDS011;7210;51.502;10.722;2023-05-21T05:28:38;22.57;;;20.30;;
14251;SDS011;7210;51.502;10.722;2023-05-21T05:31:05;22.37;;;20.27;;
14251;SDS011;7210;51.502;10.722;2023-05-21T05:33:33;22.50;;;20.23;;
14251;SDS011;7210;51.502;10.722;2023-05-21T05:36:01;23.53;;;21.13;;
14251;SDS011;7210;51.502;10.722;2023-05-21T05:38:29;25.57;;;23.07;;
14251;SDS011;7210;51.502;10.722;2023-05-21T05:40:56;21.27;;;19.27;;
14251;SDS011;7210;51.502;10.722;2023-05-21T05:43:23;23.33;;;21.23;;
14251;SDS011;7210;51.502;10.722;2023-05-21T05:45:51;22.10;;;20.10;;
14251;SDS011;7210;51.502;10.722;2023-05-21T05:48:20;25.47;;;22.87;;
14251;SDS011;7210;51.502;10.722;2023-05-21T05:50:47;22.83;;;20.60;;
14251;SDS011;7210;51.502;10.722;2023-05-21T05:53:16;25.27;;;22.80;;
14251;SDS011;7210;51.502;10.722;2023-05-21T05:55:43;26.63;;;24.00;;
14251;SDS011;7210;51.502;10.722;2023-05-21T05:58:10;27.87;;;25.30;;
14251;SDS011;7210;51.502;10.722;2023-05-21T06:00:50;25.60;;;23.30;;
14251;SDS011;7210;51.502;10.722;2023-05-21T06:03:17;27.97;;;25.17;;
14251;SDS011;7210;51.502;10.722;2023-05-21T06:05:50;28.73;;;25.90;;
14251;SDS011;7210;51.502;10.722;2023-05-21T06:08:18;27.87;;;25.27;;
14251;SDS011;7210;51.502;10.722;2023-05-21T06:10:45;29.13;;;26.17;;
14251;SDS011;7210;51.502;10.722;2023-05-21T06:13:13;30.47;;;27.57;;
14251;SDS011;7210;51.502;10.722;2023-05-21T06:15:40;31.70;;;28.50;;
14251;SDS011;7210;51.502;10.722;2023-05-21T06:18:08;32.23;;;28.93;;
14251;SDS011;7210;51.502;10.722;2023-05-21T06:20:35;31.53;;;28.43;;
14251;SDS011;7210;51.502;10.722;2023-05-21T06:23:02;31.20;;;28.00;;
14251;SDS011;7210;51.502;10.722;2023-05-21T06:25:32;31.67;;;28.67;;
14251;SDS011;7210;51.502;10.722;2023-05-21T06:27:59;30.83;;;27.83;;
14251;SDS011;7210;51.502;10.722;2023-05-21T06:30:28;31.20;;;28.20;;
14251;SDS011;7210;51.502;10.722;2023-05-21T06:33:02;27.40;;;24.80;;
14251;SDS011;7210;51.502;10.722;2023-05-21T06:35:29;30.10;;;27.10;;
14251;SDS011;7210;51.502;10.722;2023-05-21T06:37:58;28.33;;;25.70;;
14251;SDS011;7210;51.502;10.722;2023-05-21T06:40:33;30.17;;;27.27;;
14251;SDS011;7210;51.502;10.722;2023-05-21T06:43:01;30.07;;;27.17;;
14251;SDS011;7210;51.502;10.722;2023-05-21T06:45:52;30.27;;;27.53;;
14251;SDS011;7210;51.502;10.722;2023-05-21T06:48:32;30.00;;;27.20;;
14251;SDS011;7210;51.502;10.722;2023-05-21T06:50:59;30.77;;;27.83;;
14251;SDS011;7210;51.502;10.722;2023-05-21T06:53:26;30.07;;;27.10;;
14251;SDS011;7210;51.502;10.722;2023-05-21T06:55:55;29.27;;;26.47;;
14251;SDS011;7210;51.502;10.722;2023-05-21T06:58:37;29.07;;;26.27;;
14251;SDS011;7210;51.502;10.722;2023-05-21T07:01:05;30.13;;;27.23;;
14251;SDS011;7210;51.502;10.722;2023-05-21T07:03:32;29.10;;;26.30;;
14251;SDS011;7210;51.502;10.722;2023-05-21T07:06:01;29.00;;;26.10;;
14251;SDS011;7210;51.502;10.722;2023-05-21T07:08:29;26.73;;;24.33;;
14251;SDS011;7210;51.502;10.722;2023-05-21T07:10:58;27.17;;;24.67;;
14251;SDS011;7210;51.502;10.722;2023-05-21T07:13:33;28.20;;;25.50;;
14251;SDS011;7210;51.502;10.722;2023-05-21T07:16:02;26.23;;;23.77;;
14251;SDS011;7210;51.502;10.722;2023-05-21T07:18:29;26.17;;;23.57;;
14251;SDS011;7210;51.502;10.722;2023-05-21T07:20:57;26.80;;;24.23;;
14251;SDS011;7210;51.502;10.722;2023-05-21T07:23:25;27.47;;;24.77;;
14251;SDS011;7210;51.502;10.722;2023-05-21T07:25:52;25.80;;;23.47;;
14251;SDS011;7210;51.502;10.722;2023-05-21T07:28:21;25.37;;;22.97;;
14251;SDS011;7210;51.502;10.722;2023-05-21T07:30:48;25.43;;;23.03;;
14251;SDS011;7210;51.502;10.722;2023-05-21T07:33:19;24.87;;;22.27;;
14251;SDS011;7210;51.502;10.722;2023-05-21T07:35:48;26.80;;;24.27;;
14251;SDS011;7210;51.502;10.722;2023-05-21T07:38:16;26.03;;;23.33;;
14251;SDS011;7210;51.502;10.722;2023-05-21T07:40:43;23.97;;;21.77;;
14251;SDS011;7210;51.502;10.722;2023-05-21T07:43:11;24.27;;;22.07;;
14251;SDS011;7210;51.502;10.722;2023-05-21T07:45:41;25.70;;;23.33;;
14251;SDS011;7210;51.502;10.722;2023-05-21T07:48:08;25.90;;;23.50;;
14251;SDS011;7210;51.502;10.722;2023-05-21T07:50:45;26.10;;;23.60;;
14251;SDS011;7210;51.502;10.722;2023-05-21T07:53:13;25.37;;;23.07;;
14251;SDS011;7210;51.502;10.722;2023-05-21T07:55:42;25.77;;;23.27;;
14251;SDS011;7210;51.502;10.722;2023-05-21T07:58:13;25.80;;;23.37;;
14251;SDS011;7210;51.502;10.722;2023-05-21T08:00:43;25.57;;;23.10;;
14251;SDS011;7210;51.502;10.722;2023-05-21T08:03:13;25.83;;;23.33;;
14251;SDS011;7210;51.502;10.722;2023-05-21T08:05:41;23.70;;;21.57;;
14251;SDS011;7210;51.502;10.722;2023-05-21T08:08:13;25.30;;;22.87;;
14251;SDS011;7210;51.502;10.722;2023-05-21T08:10:43;25.13;;;22.83;;
14251;SDS011;7210;51.502;10.722;2023-05-21T08:13:12;23.60;;;21.50;;
14251;SDS011;7210;51.502;10.722;2023-05-21T08:15:40;23.50;;;21.20;;
14251;SDS011;7210;51.502;10.722;2023-05-21T08:18:10;24.13;;;21.93;;
14251;SDS011;7210;51.502;10.722;2023-05-21T08:20:40;23.37;;;21.20;;
14251;SDS011;7210;51.502;10.722;2023-05-21T08:23:07;23.40;;;21.23;;
14251;SDS011;7210;51.502;10.722;2023-05-21T08:25:40;23.40;;;21.40;;
14251;SDS011;7210;51.502;10.722;2023-05-21T08:28:08;23.30;;;21.20;;
14251;SDS011;7210;51.502;10.722;2023-05-21T08:30:38;22.60;;;20.60;;
14251;SDS011;7210;51.502;10.722;2023-05-21T08:33:07;22.33;;;20.23;;
14251;SDS011;7210;51.502;10.722;2023-05-21T08:35:34;22.13;;;20.03;;
14251;SDS011;7210;51.502;10.722;2023-05-21T08:38:09;21.03;;;19.03;;
14251;SDS011;7210;51.502;10.722;2023-05-21T08:40:44;22.27;;;20.27;;
14251;SDS011;7210;51.502;10.722;2023-05-21T08:43:14;20.87;;;18.97;;
14251;SDS011;7210;51.502;10.722;2023-05-21T08:45:46;21.03;;;19.23;;
14251;SDS011;7210;51.502;10.722;2023-05-21T08:48:23;21.03;;;19.07;;
14251;SDS011;7210;51.502;10.722;2023-05-21T08:50:51;21.77;;;19.73;;
14251;SDS011;7210;51.502;10.722;2023-05-21T08:53:24;22.17;;;20.27;;
14251;SDS011;7210;51.502;10.722;2023-05-21T08:55:54;20.70;;;18.90;;
14251;SDS011;7210;51.502;10.722;2023-05-21T08:58:25;21.90;;;19.73;;
14251;SDS011;7210;51.502;10.722;2023-05-21T09:00:54;20.23;;;18.33;;
14251;SDS011;7210;51.502;10.722;2023-05-21T09:03:26;19.60;;;17.80;;
14251;SDS011;7210;51.502;10.722;2023-05-21T09:05:55;19.97;;;18.17;;
14251;SDS011;7210;51.502;10.722;2023-05-21T09:08:28;19.33;;;17.67;;
14251;SDS011;7210;51.502;10.722;2023-05-21T09:11:07;20.27;;;18.30;;
14251;SDS011;7210;51.502;10.722;2023-05-21T09:13:40;19.40;;;17.70;;
14251;SDS011;7210;51.502;10.722;2023-05-21T09:16:21;20.00;;;18.10;;
14251;SDS011;7210;51.502;10.722;2023-05-21T09:18:50;19.93;;;18.03;;
14251;SDS011;7210;51.502;10.722;2023-05-21T09:21:38;19.57;;;17.87;;
14251;SDS011;7210;51.502;10.722;2023-05-21T09:24:11;19.20;;;17.40;;
14251;SDS011;7210;51.502;10.722;2023-05-21T09:26:41;18.23;;;16.63;;
14251;SDS011;7210;51.502;10.722;2023-05-21T09:29:09;19.83;;;18.07;;
14251;SDS011;7210;51.502;10.722;2023-05-21T09:31:41;19.17;;;17.38;;
14251;SDS011;7210;51.502;10.722;2023-05-21T09:34:12;18.83;;;17.07;;
14251;SDS011;7210;51.502;10.722;2023-05-21T09:36:41;18.57;;;16.87;;
14251;SDS011;7210;51.502;10.722;2023-05-21T09:39:09;18.88;;;17.23;;
14251;SDS011;7210;51.502;10.722;2023-05-21T09:41:41;17.98;;;16.48;;
14251;SDS011;7210;51.502;10.722;2023-05-21T09:44:08;18.10;;;16.50;;
14251;SDS011;7210;51.502;10.722;2023-05-21T09:46:37;17.40;;;16.00;;
14251;SDS011;7210;51.502;10.722;2023-05-21T09:49:05;17.48;;;15.77;;
14251;SDS011;7210;51.502;10.722;2023-05-21T09:51:48;18.60;;;16.90;;
14251;SDS011;7210;51.502;10.722;2023-05-21T09:54:15;17.52;;;15.93;;
14251;SDS011;7210;51.502;10.722;2023-05-21T09:56:50;16.98;;;15.45;;
14251;SDS011;7210;51.502;10.722;2023-05-21T09:59:17;18.83;;;17.23;;
14251;SDS011;7210;51.502;10.722;2023-05-21T10:01:46;17.67;;;16.10;;
14251;SDS011;7210;51.502;10.722;2023-05-21T10:04:16;18.10;;;16.60;;
14251;SDS011;7210;51.502;10.722;2023-05-21T10:06:44;18.27;;;16.55;;
14251;SDS011;7210;51.502;10.722;2023-05-21T10:09:20;17.40;;;15.65;;
14251;SDS011;7210;51.502;10.722;2023-05-21T10:11:50;17.75;;;16.08;;
14251;SDS011;7210;51.502;10.722;2023-05-21T10:14:19;17.00;;;15.50;;
14251;SDS011;7210;51.502;10.722;2023-05-21T10:16:53;16.15;;;14.65;;
14251;SDS011;7210;51.502;10.722;2023-05-21T10:19:21;16.95;;;15.52;;
14251;SDS011;7210;51.502;10.722;2023-05-21T10:21:51;16.92;;;15.43;;
14251;SDS011;7210;51.502;10.722;2023-05-21T10:24:21;15.52;;;14.23;;
14251;SDS011;7210;51.502;10.722;2023-05-21T10:26:56;15.95;;;14.65;;
14251;SDS011;7210;51.502;10.722;2023-05-21T10:29:23;17.50;;;16.02;;
14251;SDS011;7210;51.502;10.722;2023-05-21T10:31:52;16.50;;;15.10;;
14251;SDS011;7210;51.502;10.722;2023-05-21T10:34:21;16.33;;;15.00;;
14251;SDS011;7210;51.502;10.722;2023-05-21T10:36:52;17.23;;;15.60;;
14251;SDS011;7210;51.502;10.722;2023-05-21T10:39:23;17.58;;;15.98;;
14251;SDS011;7210;51.502;10.722;2023-05-21T10:41:55;16.48;;;14.93;;
14251;SDS011;7210;51.502;10.722;2023-05-21T10:44:45;16.30;;;14.90;;
14251;SDS011;7210;51.502;10.722;2023-05-21T10:47:51;17.13;;;15.63;;
14251;SDS011;7210;51.502;10.722;2023-05-21T10:57:25;16.27;;;14.80;;
14251;SDS011;7210;51.502;10.722;2023-05-21T11:00:35;16.30;;;14.75;;
14251;SDS011;7210;51.502;10.722;2023-05-21T11:03:03;16.10;;;14.50;;
14251;SDS011;7210;51.502;10.722;2023-05-21T11:05:39;14.82;;;13.63;;
14251;SDS011;7210;51.502;10.722;2023-05-21T11:08:20;15.18;;;13.93;;
14251;SDS011;7210;51.502;10.722;2023-05-21T11:10:53;14.25;;;12.95;;
14251;SDS011;7210;51.502;10.722;2023-05-21T11:13:23;14.55;;;13.15;;
14251;SDS011;7210;51.502;10.722;2023-05-21T11:18:57;14.85;;;13.43;;
14251;SDS011;7210;51.502;10.722;2023-05-21T11:21:29;15.73;;;14.35;;
14251;SDS011;7210;51.502;10.722;2023-05-21T11:24:04;15.70;;;14.30;;
14251;SDS011;7210;51.502;10.722;2023-05-21T11:29:34;15.32;;;13.93;;
14251;SDS011;7210;51.502;10.722;2023-05-21T11:32:07;14.80;;;13.50;;
14251;SDS011;7210;51.502;10.722;2023-05-21T11:34:46;14.68;;;13.38;;
14251;SDS011;7210;51.502;10.722;2023-05-21T11:37:29;14.93;;;13.02;;
14251;SDS011;7210;51.502;10.722;2023-05-21T11:42:52;14.35;;;13.15;;
14251;SDS011;7210;51.502;10.722;2023-05-21T11:45:22;14.95;;;13.65;;
14251;SDS011;7210;51.502;10.722;2023-05-21T11:47:56;14.70;;;13.50;;
14251;SDS011;7210;51.502;10.722;2023-05-21T11:50:24;14.98;;;13.77;;
14251;SDS011;7210;51.502;10.722;2023-05-21T11:52:51;15.73;;;14.23;;
14251;SDS011;7210;51.502;10.722;2023-05-21T11:55:22;16.10;;;14.70;;
14251;SDS011;7210;51.502;10.722;2023-05-21T11:57:52;18.98;;;17.23;;
14251;SDS011;7210;51.502;10.722;2023-05-21T12:00:20;24.85;;;22.55;;
14251;SDS011;7210;51.502;10.722;2023-05-21T12:02:49;15.13;;;13.63;;
14251;SDS011;7210;51.502;10.722;2023-05-21T12:05:17;15.50;;;14.20;;
14251;SDS011;7210;51.502;10.722;2023-05-21T12:07:45;15.20;;;13.90;;
14251;SDS011;7210;51.502;10.722;2023-05-21T12:10:19;14.13;;;12.93;;
14251;SDS011;7210;51.502;10.722;2023-05-21T12:12:47;14.02;;;12.90;;
14251;SDS011;7210;51.502;10.722;2023-05-21T12:15:16;14.43;;;13.13;;
14251;SDS011;7210;51.502;10.722;2023-05-21T12:17:44;14.48;;;13.32;;
14251;SDS011;7210;51.502;10.722;2023-05-21T12:20:16;13.98;;;12.65;;
14251;SDS011;7210;51.502;10.722;2023-05-21T12:22:44;13.82;;;12.40;;
14251;SDS011;7210;51.502;10.722;2023-05-21T12:25:11;13.88;;;12.48;;
14251;SDS011;7210;51.502;10.722;2023-05-21T12:27:38;12.90;;;11.90;;
14251;SDS011;7210;51.502;10.722;2023-05-21T12:30:09;14.85;;;13.27;;
14251;SDS011;7210;51.502;10.722;2023-05-21T12:32:40;13.73;;;12.65;;
14251;SDS011;7210;51.502;10.722;2023-05-21T12:35:09;14.48;;;13.25;;
14251;SDS011;7210;51.502;10.722;2023-05-21T12:37:46;16.23;;;14.82;;
14251;SDS011;7210;51.502;10.722;2023-05-21T12:40:15;14.73;;;13.32;;
14251;SDS011;7210;51.502;10.722;2023-05-21T12:42:43;15.18;;;13.65;;
14251;SDS011;7210;51.502;10.722;2023-05-21T12:45:10;14.82;;;13.63;;
14251;SDS011;7210;51.502;10.722;2023-05-21T12:47:41;14.20;;;12.82;;
14251;SDS011;7210;51.502;10.722;2023-05-21T12:50:20;13.55;;;12.45;;
14251;SDS011;7210;51.502;10.722;2023-05-21T12:52:52;14.48;;;13.20;;
14251;SDS011;7210;51.502;10.722;2023-05-21T12:55:27;13.55;;;12.43;;
14251;SDS011;7210;51.502;10.722;2023-05-21T12:58:03;13.25;;;12.05;;
14251;SDS011;7210;51.502;10.722;2023-05-21T13:00:32;14.15;;;12.65;;
14251;SDS011;7210;51.502;10.722;2023-05-21T13:03:01;12.77;;;11.65;;
14251;SDS011;7210;51.502;10.722;2023-05-21T13:05:30;12.63;;;11.52;;
14251;SDS011;7210;51.502;10.722;2023-05-21T13:07:57;13.48;;;12.27;;
14251;SDS011;7210;51.502;10.722;2023-05-21T13:10:24;13.88;;;12.52;;
14251;SDS011;7210;51.502;10.722;2023-05-21T13:12:51;13.38;;;12.18;;
14251;SDS011;7210;51.502;10.722;2023-05-21T13:15:19;13.35;;;12.18;;
14251;SDS011;7210;51.502;10.722;2023-05-21T13:17:46;13.05;;;11.90;;
14251;SDS011;7210;51.502;10.722;2023-05-21T13:20:15;14.77;;;13.38;;
14251;SDS011;7210;51.502;10.722;2023-05-21T13:22:46;14.15;;;12.98;;
14251;SDS011;7210;51.502;10.722;2023-05-21T13:25:16;14.00;;;12.68;;
14251;SDS011;7210;51.502;10.722;2023-05-21T13:27:45;12.55;;;11.52;;
14251;SDS011;7210;51.502;10.722;2023-05-21T13:30:15;12.93;;;11.85;;
14251;SDS011;7210;51.502;10.722;2023-05-21T13:32:43;14.05;;;12.90;;
14251;SDS011;7210;51.502;10.722;2023-05-21T13:35:10;13.43;;;12.38;;
14251;SDS011;7210;51.502;10.722;2023-05-21T13:37:47;12.35;;;11.23;;
14251;SDS011;7210;51.502;10.722;2023-05-21T13:40:14;12.00;;;11.00;;
14251;SDS011;7210;51.502;10.722;2023-05-21T13:42:42;11.00;;;10.07;;
14251;SDS011;7210;51.502;10.722;2023-05-21T13:45:12;12.32;;;11.13;;
14251;SDS011;7210;51.502;10.722;2023-05-21T13:47:41;11.65;;;10.57;;
14251;SDS011;7210;51.502;10.722;2023-05-21T13:50:10;11.98;;;10.77;;
14251;SDS011;7210;51.502;10.722;2023-05-21T13:52:38;12.02;;;11.05;;
14251;SDS011;7210;51.502;10.722;2023-05-21T13:55:08;11.35;;;10.23;;
14251;SDS011;7210;51.502;10.722;2023-05-21T13:57:36;11.43;;;10.52;;
14251;SDS011;7210;51.502;10.722;2023-05-21T14:00:05;11.60;;;10.52;;
14251;SDS011;7210;51.502;10.722;2023-05-21T14:02:36;11.13;;;10.13;;
14251;SDS011;7210;51.502;10.722;2023-05-21T14:05:09;10.85;;;9.90;;
14251;SDS011;7210;51.502;10.722;2023-05-21T14:07:36;11.63;;;10.68;;
14251;SDS011;7210;51.502;10.722;2023-05-21T14:10:07;12.32;;;11.25;;
14251;SDS011;7210;51.502;10.722;2023-05-21T14:12:35;12.00;;;10.98;;
14251;SDS011;7210;51.502;10.722;2023-05-21T14:15:03;11.63;;;10.52;;
14251;SDS011;7210;51.502;10.722;2023-05-21T14:17:31;11.00;;;10.00;;
14251;SDS011;7210;51.502;10.722;2023-05-21T14:19:58;12.02;;;10.90;;
14251;SDS011;7210;51.502;10.722;2023-05-21T14:22:26;11.38;;;10.48;;
14251;SDS011;7210;51.502;10.722;2023-05-21T14:24:53;10.65;;;9.85;;
14251;SDS011;7210;51.502;10.722;2023-05-21T14:27:21;11.32;;;10.32;;
14251;SDS011;7210;51.502;10.722;2023-05-21T14:29:48;11.00;;;10.10;;
14251;SDS011;7210;51.502;10.722;2023-05-21T14:32:15;12.48;;;11.38;;
14251;SDS011;7210;51.502;10.722;2023-05-21T14:34:43;11.00;;;10.13;;
14251;SDS011;7210;51.502;10.722;2023-05-21T14:37:10;11.45;;;10.50;;
14251;SDS011;7210;51.502;10.722;2023-05-21T14:39:37;11.85;;;10.45;;
14251;SDS011;7210;51.502;10.722;2023-05-21T14:42:04;11.40;;;10.30;;
14251;SDS011;7210;51.502;10.722;2023-05-21T14:44:33;11.30;;;10.20;;
14251;SDS011;7210;51.502;10.722;2023-05-21T14:47:00;11.55;;;10.45;;
14251;SDS011;7210;51.502;10.722;2023-05-21T14:49:27;11.13;;;10.13;;
14251;SDS011;7210;51.502;10.722;2023-05-21T14:51:55;11.48;;;10.38;;
14251;SDS011;7210;51.502;10.722;2023-05-21T14:54:22;11.20;;;10.30;;